createdAt,value
2023-02-12T00:00:53.000Z,98832.16
2023-02-12T00:03:19.981Z,98833.25
2023-02-12T00:05:46.979Z,98836.47
2023-02-12T00:08:16.328Z,98838.00
2023-02-12T00:10:43.810Z,98834.63
2023-02-12T00:13:11.632Z,98826.28
2023-02-12T00:15:39.865Z,98831.06
2023-02-12T00:18:06.848Z,98837.63
2023-02-12T00:20:33.788Z,98842.06
2023-02-12T00:23:00.961Z,98844.78
2023-02-12T00:25:27.878Z,98840.66
2023-02-12T00:27:54.849Z,98838.00
2023-02-12T00:30:21.841Z,98831.78
2023-02-12T00:32:48.869Z,98834.78
2023-02-12T00:35:16.261Z,98831.44
2023-02-12T00:37:43.614Z,98831.19
2023-02-12T00:40:10.817Z,98831.47
2023-02-12T00:42:39.342Z,98835.56
2023-02-12T00:45:06.607Z,98820.50
2023-02-12T00:47:33.551Z,98836.88
2023-02-12T00:50:00.511Z,98836.56
2023-02-12T00:52:27.444Z,98829.00
2023-02-12T00:54:54.410Z,98839.66
2023-02-12T00:57:21.372Z,98848.91
2023-02-12T00:59:49.721Z,98847.31
2023-02-12T01:02:18.221Z,98847.13
2023-02-12T01:04:46.956Z,98825.28
2023-02-12T01:07:13.960Z,98830.59
2023-02-12T01:09:41.169Z,98838.53
2023-02-12T01:12:08.516Z,98835.22
2023-02-12T01:14:35.559Z,98842.19
2023-02-12T01:17:03.910Z,98831.09
2023-02-12T01:19:30.886Z,98837.88
2023-02-12T01:21:58.141Z,98829.13
2023-02-12T01:24:25.044Z,98834.66
2023-02-12T01:26:51.950Z,98835.13
2023-02-12T01:29:18.906Z,98833.28
2023-02-12T01:31:46.005Z,98839.44
2023-02-12T01:34:13.241Z,98841.72
2023-02-12T01:36:40.285Z,98842.31
2023-02-12T01:39:07.230Z,98836.25
2023-02-12T01:41:36.311Z,98828.59
2023-02-12T01:44:12.486Z,98823.25
2023-02-12T01:46:40.156Z,98827.63
2023-02-12T01:49:13.056Z,98827.34
2023-02-12T01:51:40.005Z,98826.88
2023-02-12T01:54:08.376Z,98834.16
2023-02-12T01:56:35.289Z,98835.63
2023-02-12T01:59:02.274Z,98840.47
2023-02-12T02:01:32.694Z,98833.13
2023-02-12T02:04:02.891Z,98826.88
2023-02-12T02:06:35.363Z,98829.34
2023-02-12T02:09:02.838Z,98835.91
2023-02-12T02:11:48.308Z,98836.75
2023-02-12T02:14:33.724Z,98830.81
2023-02-12T02:17:07.166Z,98832.19
2023-02-12T02:19:40.113Z,98831.91
2023-02-12T02:22:16.216Z,98829.44
2023-02-12T02:25:01.928Z,98837.66
2023-02-12T02:27:50.641Z,98839.28
2023-02-12T02:30:29.652Z,98835.09
2023-02-12T02:33:06.556Z,98831.28
2023-02-12T02:35:56.210Z,98832.53
2023-02-12T02:38:45.039Z,98834.41
2023-02-12T02:41:17.908Z,98831.50
2023-02-12T02:43:49.641Z,98831.06
2023-02-12T02:46:26.115Z,98841.06
2023-02-12T02:48:54.381Z,98838.91
2023-02-12T02:51:27.729Z,98834.41
2023-02-12T02:54:07.766Z,98839.50
2023-02-12T02:56:36.400Z,98840.94
2023-02-12T02:59:09.990Z,98842.38
2023-02-12T03:01:41.899Z,98835.84
2023-02-12T03:04:21.401Z,98831.56
2023-02-12T03:06:53.690Z,98837.84
2023-02-12T03:09:32.107Z,98843.53
2023-02-12T03:12:03.312Z,98841.31
2023-02-12T03:14:32.661Z,98838.09
2023-02-12T03:17:35.593Z,98845.84
2023-02-12T03:20:08.294Z,98854.22
2023-02-12T03:22:36.641Z,98839.72
2023-02-12T03:25:09.739Z,98840.13
2023-02-12T03:27:44.590Z,98832.38
2023-02-12T03:30:11.955Z,98832.38
2023-02-12T03:32:41.579Z,98836.47
2023-02-12T03:35:23.759Z,98837.22
2023-02-12T03:38:01.876Z,98846.25
2023-02-12T03:40:37.848Z,98849.09
2023-02-12T03:43:23.080Z,98846.06
2023-02-12T03:46:15.327Z,98854.16
2023-02-12T03:49:03.430Z,98862.06
2023-02-12T03:51:32.801Z,98860.72
2023-02-12T03:53:59.753Z,98860.88
2023-02-12T03:56:43.502Z,98872.28
2023-02-12T03:59:10.350Z,98875.72
2023-02-12T04:01:37.461Z,98872.78
2023-02-12T04:04:06.070Z,98872.16
2023-02-12T04:06:33.045Z,98880.91
2023-02-12T04:09:05.993Z,98875.09
2023-02-12T04:11:47.660Z,98875.66
2023-02-12T04:14:23.305Z,98880.16
2023-02-12T04:17:14.088Z,98874.22
2023-02-12T04:19:47.270Z,98879.69
2023-02-12T04:22:39.005Z,98882.88
2023-02-12T04:25:23.416Z,98882.22
2023-02-12T04:28:19.954Z,98874.91
2023-02-12T04:30:52.827Z,98882.44
2023-02-12T04:33:21.008Z,98872.47
2023-02-12T04:35:55.618Z,98872.44
2023-02-12T04:38:25.044Z,98877.47
2023-02-12T04:40:52.017Z,98886.34
2023-02-12T04:43:31.602Z,98880.94
2023-02-12T04:45:59.008Z,98886.97
2023-02-12T04:48:26.146Z,98888.25
2023-02-12T04:50:53.126Z,98885.00
2023-02-12T04:53:20.133Z,98886.63
2023-02-12T04:55:47.776Z,98884.78
2023-02-12T04:58:14.722Z,98885.81
2023-02-12T05:00:41.712Z,98892.97
2023-02-12T05:03:08.654Z,98896.19
2023-02-12T05:05:35.669Z,98900.81
2023-02-12T05:08:02.641Z,98901.38
2023-02-12T05:10:29.586Z,98893.66
2023-02-12T05:12:56.544Z,98892.66
2023-02-12T05:15:23.572Z,98902.03
2023-02-12T05:17:50.644Z,98904.25
2023-02-12T05:20:17.644Z,98907.94
2023-02-12T05:22:44.619Z,98902.88
2023-02-12T05:25:11.893Z,98902.06
2023-02-12T05:27:38.910Z,98898.31
2023-02-12T05:30:06.358Z,98904.66
2023-02-12T05:32:33.319Z,98902.41
2023-02-12T05:35:00.216Z,98905.50
2023-02-12T05:37:27.351Z,98909.56
2023-02-12T05:39:54.356Z,98908.19
2023-02-12T05:42:21.341Z,98909.53
2023-02-12T05:44:48.334Z,98921.41
2023-02-12T05:47:15.285Z,98916.03
2023-02-12T05:49:42.850Z,98917.03
2023-02-12T05:52:09.787Z,98919.75
2023-02-12T05:54:36.701Z,98926.25
2023-02-12T05:57:04.042Z,98929.19
2023-02-12T05:59:31.025Z,98927.97
2023-02-12T06:01:57.996Z,98920.78
2023-02-12T06:04:27.145Z,98924.22
2023-02-12T06:06:54.498Z,98927.66
2023-02-12T06:09:21.645Z,98938.47
2023-02-12T06:11:48.642Z,98927.63
2023-02-12T06:14:16.948Z,98930.31
2023-02-12T06:16:50.874Z,98931.94
2023-02-12T06:19:18.265Z,98929.34
2023-02-12T06:21:45.210Z,98927.91
2023-02-12T06:24:12.812Z,98934.06
2023-02-12T06:26:39.758Z,98938.50
2023-02-12T06:29:06.748Z,98943.84
2023-02-12T06:31:34.853Z,98948.63
2023-02-12T06:34:03.810Z,98945.41
2023-02-12T06:36:30.870Z,98956.22
2023-02-12T06:38:57.861Z,98961.34
2023-02-12T06:41:24.841Z,98955.81
2023-02-12T06:43:51.920Z,98959.47
2023-02-12T06:46:19.464Z,98955.97
2023-02-12T06:48:46.734Z,98960.22
2023-02-12T06:51:17.866Z,98951.66
2023-02-12T06:53:44.904Z,98961.88
2023-02-12T06:56:13.353Z,98951.81
2023-02-12T06:58:41.568Z,98955.75
2023-02-12T07:01:15.523Z,98954.31
2023-02-12T07:03:42.691Z,98949.56
2023-02-12T07:06:09.812Z,98948.88
2023-02-12T07:08:36.894Z,98947.84
2023-02-12T07:11:04.207Z,98946.38
2023-02-12T07:13:31.448Z,98953.53
2023-02-12T07:15:58.733Z,98955.56
2023-02-12T07:18:26.084Z,98950.41
2023-02-12T07:20:53.082Z,98954.53
2023-02-12T07:23:20.066Z,98948.63
2023-02-12T07:25:58.269Z,98955.66
2023-02-12T07:28:25.427Z,98951.16
2023-02-12T07:30:52.541Z,98953.81
2023-02-12T07:33:19.700Z,98951.56
2023-02-12T07:35:46.626Z,98952.38
2023-02-12T07:38:13.634Z,98954.09
2023-02-12T07:40:40.605Z,98947.22
2023-02-12T07:43:07.547Z,98950.84
2023-02-12T07:45:36.253Z,98954.09
2023-02-12T07:48:03.297Z,98950.63
2023-02-12T07:50:30.270Z,98951.84
2023-02-12T07:52:57.490Z,98950.63
2023-02-12T07:55:24.489Z,98946.75
2023-02-12T07:57:51.447Z,98943.88
2023-02-12T08:00:19.062Z,98950.38
2023-02-12T08:02:53.813Z,98956.88
2023-02-12T08:05:20.883Z,98942.00
2023-02-12T08:07:47.916Z,98957.94
2023-02-12T08:10:15.016Z,98956.63
2023-02-12T08:12:41.995Z,98951.56
2023-02-12T08:15:09.243Z,98946.94
2023-02-12T08:17:36.249Z,98949.66
2023-02-12T08:20:03.409Z,98956.19
2023-02-12T08:22:30.404Z,98951.41
2023-02-12T08:24:57.342Z,98955.44
2023-02-12T08:27:24.244Z,98959.63
2023-02-12T08:29:51.211Z,98948.16
2023-02-12T08:32:18.184Z,98954.97
2023-02-12T08:34:45.184Z,98949.59
2023-02-12T08:37:12.152Z,98950.44
2023-02-12T08:39:39.131Z,98946.28
2023-02-12T08:42:06.155Z,98956.03
2023-02-12T08:44:33.180Z,98958.59
2023-02-12T08:47:00.240Z,98959.63
2023-02-12T08:49:28.658Z,98964.00
2023-02-12T08:51:57.463Z,98954.13
2023-02-12T08:54:26.073Z,98950.13
2023-02-12T08:57:00.602Z,98961.03
2023-02-12T08:59:27.592Z,98958.16
2023-02-12T09:01:55.158Z,98963.47
2023-02-12T09:04:23.861Z,98958.31
2023-02-12T09:06:51.071Z,98954.63
2023-02-12T09:09:18.162Z,98964.06
2023-02-12T09:11:45.183Z,98974.38
2023-02-12T09:14:14.138Z,98974.22
2023-02-12T09:16:41.417Z,98969.78
2023-02-12T09:19:08.989Z,98969.25
2023-02-12T09:21:36.114Z,98970.41
2023-02-12T09:24:03.777Z,98973.94
2023-02-12T09:26:30.972Z,98973.19
2023-02-12T09:28:58.681Z,98973.53
2023-02-12T09:31:29.341Z,98984.09
2023-02-12T09:33:59.619Z,98986.38
2023-02-12T09:36:26.525Z,98990.00
2023-02-12T09:38:54.397Z,98985.16
2023-02-12T09:41:46.131Z,98992.69
2023-02-12T09:44:50.716Z,98986.03
2023-02-12T09:47:20.679Z,98997.13
2023-02-12T09:49:56.723Z,98995.31
2023-02-12T09:52:26.730Z,98998.53
2023-02-12T09:54:53.753Z,98990.56
2023-02-12T09:57:25.601Z,98993.03
2023-02-12T10:00:02.160Z,99001.47
2023-02-12T10:02:31.874Z,98997.50
2023-02-12T10:05:02.061Z,99001.94
2023-02-12T10:08:28.024Z,98998.63
2023-02-12T10:11:30.259Z,99000.44
2023-02-12T10:14:04.168Z,99003.75
2023-02-12T10:16:49.669Z,99004.25
2023-02-12T10:19:41.035Z,99004.97
2023-02-12T10:22:32.841Z,99013.56
2023-02-12T10:25:06.659Z,99004.38
2023-02-12T10:27:43.667Z,99005.81
2023-02-12T10:30:27.067Z,99002.97
2023-02-12T10:33:18.190Z,99002.75
2023-02-12T10:35:49.281Z,99004.34
2023-02-12T10:38:20.197Z,99015.22
2023-02-12T10:40:47.231Z,99010.16
2023-02-12T10:43:14.219Z,99011.63
2023-02-12T10:45:42.234Z,99011.94
2023-02-12T10:48:28.030Z,99008.44
2023-02-12T10:51:05.991Z,99002.09
2023-02-12T10:53:33.084Z,99009.56
2023-02-12T10:56:12.118Z,99009.22
2023-02-12T10:59:03.108Z,99003.66
2023-02-12T11:01:39.298Z,99004.59
2023-02-12T11:04:28.772Z,99000.44
2023-02-12T11:07:06.949Z,99000.69
2023-02-12T11:09:45.553Z,98996.53
2023-02-12T11:12:37.727Z,98995.63
2023-02-12T11:15:21.077Z,99000.34
2023-02-12T11:18:05.492Z,98991.59
2023-02-12T11:20:49.005Z,98991.75
2023-02-12T11:23:29.476Z,98987.47
2023-02-12T11:26:00.411Z,98997.72
2023-02-12T11:28:27.609Z,98991.63
2023-02-12T11:31:19.168Z,98994.81
2023-02-12T11:33:46.121Z,98984.34
2023-02-12T11:36:24.895Z,98976.06
2023-02-12T11:38:56.123Z,98978.13
2023-02-12T11:41:29.447Z,98990.19
2023-02-12T11:43:56.514Z,98991.56
2023-02-12T11:46:25.442Z,98979.44
2023-02-12T11:48:52.923Z,98979.72
2023-02-12T11:51:29.335Z,98977.47
2023-02-12T11:54:01.372Z,98975.25
2023-02-12T11:56:45.334Z,98980.16
2023-02-12T11:59:36.022Z,98973.44
2023-02-12T12:02:28.679Z,98980.38
2023-02-12T12:04:58.660Z,98982.00
2023-02-12T12:07:28.422Z,98982.97
2023-02-12T12:09:59.815Z,98966.78
2023-02-12T12:12:39.282Z,98968.66
2023-02-12T12:15:29.702Z,98966.56
2023-02-12T12:18:19.881Z,98960.63
2023-02-12T12:21:00.468Z,98965.94
2023-02-12T12:23:40.129Z,98968.72
2023-02-12T12:26:08.841Z,98963.63
2023-02-12T12:28:46.575Z,98954.16
2023-02-12T12:31:20.710Z,98957.78
2023-02-12T12:34:07.591Z,98955.75
2023-02-12T12:37:08.483Z,98955.81
2023-02-12T12:39:53.500Z,98951.06
2023-02-12T12:42:47.108Z,98952.63
2023-02-12T12:45:26.323Z,98956.03
2023-02-12T12:47:55.964Z,98960.28
2023-02-12T12:50:38.067Z,98958.41
2023-02-12T12:53:30.197Z,98952.91
2023-02-12T12:56:28.278Z,98949.81
2023-02-12T12:59:12.232Z,98952.75
2023-02-12T13:02:16.711Z,98940.66
2023-02-12T13:04:52.285Z,98937.25
2023-02-12T13:07:50.352Z,98940.59
2023-02-12T13:10:43.101Z,98952.88
2023-02-12T13:13:31.326Z,98947.59
2023-02-12T13:16:04.473Z,98945.97
2023-02-12T13:18:37.141Z,98941.53
2023-02-12T13:21:11.183Z,98941.97
2023-02-12T13:24:04.117Z,98947.91
2023-02-12T13:26:55.025Z,98939.44
2023-02-12T13:29:26.476Z,98941.31
2023-02-12T13:32:22.425Z,98941.19
2023-02-12T13:34:49.624Z,98942.00
2023-02-12T13:37:19.243Z,98945.25
2023-02-12T13:39:48.219Z,98951.13
2023-02-12T13:42:27.393Z,98941.19
2023-02-12T13:45:02.189Z,98942.38
2023-02-12T13:47:39.556Z,98940.66
2023-02-12T13:50:37.387Z,98935.72
2023-02-12T13:53:27.357Z,98944.63
2023-02-12T13:56:21.728Z,98943.56
2023-02-12T13:58:51.777Z,98947.16
2023-02-12T14:01:49.325Z,98934.03
2023-02-12T14:04:37.786Z,98940.41
2023-02-12T14:07:14.678Z,98932.16
2023-02-12T14:10:01.776Z,98936.66
2023-02-12T14:12:34.690Z,98936.75
2023-02-12T14:15:17.091Z,98927.47
2023-02-12T14:17:52.743Z,98928.44
2023-02-12T14:20:30.361Z,98930.69
2023-02-12T14:23:02.525Z,98932.13
2023-02-12T14:25:44.132Z,98933.31
2023-02-12T14:28:18.518Z,98926.53
2023-02-12T14:30:45.529Z,98928.03
2023-02-12T14:33:23.863Z,98926.38
2023-02-12T14:36:17.737Z,98927.91
2023-02-12T14:38:47.860Z,98925.69
2023-02-12T14:41:42.670Z,98925.06
2023-02-12T14:44:27.388Z,98927.06
2023-02-12T14:46:58.065Z,98915.53
2023-02-12T14:49:46.689Z,98914.78
2023-02-12T14:52:13.554Z,98917.78
2023-02-12T14:54:57.196Z,98918.28
2023-02-12T14:57:27.247Z,98906.47
2023-02-12T14:59:59.866Z,98910.09
2023-02-12T15:02:29.644Z,98913.69
2023-02-12T15:05:05.675Z,98913.44
2023-02-12T15:07:45.029Z,98903.53
2023-02-12T15:10:40.286Z,98898.75
2023-02-12T15:13:18.837Z,98894.00
2023-02-12T15:15:55.098Z,98896.72
2023-02-12T15:18:27.641Z,98892.38
2023-02-12T15:21:02.228Z,98896.81
2023-02-12T15:23:39.344Z,98895.72
2023-02-12T15:26:07.287Z,98897.69
2023-02-12T15:28:36.422Z,98890.44
2023-02-12T15:31:04.713Z,98889.41
2023-02-12T15:33:33.787Z,98886.81
2023-02-12T15:36:01.340Z,98874.84
2023-02-12T15:38:39.892Z,98885.03
2023-02-12T15:41:07.274Z,98886.50
2023-02-12T15:43:35.421Z,98885.22
2023-02-12T15:46:03.743Z,98885.78
2023-02-12T15:48:32.605Z,98882.16
2023-02-12T15:51:08.630Z,98884.06
2023-02-12T15:53:36.812Z,98870.50
2023-02-12T15:56:03.979Z,98872.41
2023-02-12T15:58:32.280Z,98871.91
2023-02-12T16:01:03.850Z,98873.66
2023-02-12T16:03:35.910Z,98877.63
2023-02-12T16:06:14.146Z,98880.81
2023-02-12T16:08:41.821Z,98871.56
2023-02-12T16:11:15.283Z,98875.28
2023-02-12T16:13:44.812Z,98871.00
2023-02-12T16:16:11.669Z,98875.28
2023-02-12T16:18:39.258Z,98874.88
2023-02-12T16:21:12.313Z,98883.88
2023-02-12T16:23:39.307Z,98885.50
2023-02-12T16:26:06.338Z,98874.22
2023-02-12T16:28:33.646Z,98887.09
2023-02-12T16:31:11.793Z,98890.81
2023-02-12T16:33:52.743Z,98890.00
2023-02-12T16:36:19.652Z,98889.63
2023-02-12T16:38:47.550Z,98890.19
2023-02-12T16:41:31.216Z,98895.72
2023-02-12T16:44:00.865Z,98896.44
2023-02-12T16:46:51.482Z,98904.19
2023-02-12T16:49:19.779Z,98892.47
2023-02-12T16:51:46.867Z,98892.25
2023-02-12T16:54:31.184Z,98881.00
2023-02-12T16:56:58.369Z,98891.19
2023-02-12T16:59:25.375Z,98897.19
2023-02-12T17:02:03.939Z,98900.91
2023-02-12T17:04:30.977Z,98897.09
2023-02-12T17:06:58.167Z,98900.22
2023-02-12T17:09:25.184Z,98904.78
2023-02-12T17:11:52.125Z,98903.59
2023-02-12T17:14:19.973Z,98897.84
2023-02-12T17:16:47.022Z,98896.13
2023-02-12T17:19:14.203Z,98908.56
2023-02-12T17:21:42.799Z,98900.19
2023-02-12T17:24:29.464Z,98903.84
2023-02-12T17:26:56.518Z,98898.16
2023-02-12T17:29:25.927Z,98903.44
2023-02-12T17:31:56.345Z,98913.28
2023-02-12T17:34:23.456Z,98908.09
2023-02-12T17:36:50.529Z,98901.06
2023-02-12T17:39:19.754Z,98911.88
2023-02-12T17:41:46.940Z,98910.00
2023-02-12T17:44:15.174Z,98907.06
2023-02-12T17:46:42.839Z,98903.38
2023-02-12T17:49:10.062Z,98910.88
2023-02-12T17:51:37.176Z,98905.06
2023-02-12T17:54:04.430Z,98908.72
2023-02-12T17:56:31.601Z,98906.97
2023-02-12T17:58:58.684Z,98917.22
2023-02-12T18:01:25.885Z,98913.47
2023-02-12T18:03:54.591Z,98918.88
2023-02-12T18:06:26.850Z,98922.06
2023-02-12T18:08:53.894Z,98920.56
2023-02-12T18:11:20.940Z,98915.16
2023-02-12T18:13:47.970Z,98915.81
2023-02-12T18:16:15.339Z,98926.72
2023-02-12T18:18:42.487Z,98913.34
2023-02-12T18:21:10.707Z,98923.03
2023-02-12T18:23:38.110Z,98919.66
2023-02-12T18:26:08.792Z,98926.47
2023-02-12T18:28:35.990Z,98919.13
2023-02-12T18:31:03.237Z,98915.50
2023-02-12T18:33:30.397Z,98915.44
2023-02-12T18:36:01.814Z,98907.09
2023-02-12T18:38:28.989Z,98915.00
2023-02-12T18:40:57.340Z,98914.38
2023-02-12T18:43:24.935Z,98914.28
2023-02-12T18:45:52.020Z,98918.50
2023-02-12T18:48:18.998Z,98912.34
2023-02-12T18:50:45.976Z,98914.41
2023-02-12T18:53:13.224Z,98908.63
2023-02-12T18:55:41.230Z,98909.00
2023-02-12T18:58:08.215Z,98911.59
2023-02-12T19:00:35.302Z,98899.69
2023-02-12T19:03:02.405Z,98901.22
2023-02-12T19:05:30.897Z,98909.22
2023-02-12T19:07:58.208Z,98910.38
2023-02-12T19:10:25.147Z,98905.50
2023-02-12T19:12:52.474Z,98902.25
2023-02-12T19:15:19.598Z,98907.72
2023-02-12T19:17:46.604Z,98910.84
2023-02-12T19:20:14.926Z,98917.66
2023-02-12T19:22:42.221Z,98917.31
2023-02-12T19:25:09.525Z,98919.22
2023-02-12T19:27:36.519Z,98921.47
2023-02-12T19:30:04.115Z,98914.88
2023-02-12T19:32:31.115Z,98921.47
2023-02-12T19:34:58.139Z,98920.50
2023-02-12T19:37:25.080Z,98915.38
2023-02-12T19:39:52.043Z,98915.94
2023-02-12T19:42:20.557Z,98916.34
2023-02-12T19:44:47.620Z,98917.91
2023-02-12T19:47:14.800Z,98917.63
2023-02-12T19:49:42.184Z,98927.72
2023-02-12T19:52:09.168Z,98919.19
2023-02-12T19:54:36.722Z,98921.47
2023-02-12T19:57:08.982Z,98920.59
2023-02-12T19:59:36.368Z,98927.72
2023-02-12T20:02:03.610Z,98925.16
2023-02-12T20:04:31.074Z,98925.25
2023-02-12T20:06:58.236Z,98932.63
2023-02-12T20:09:25.524Z,98929.88
2023-02-12T20:11:52.628Z,98931.97
2023-02-12T20:14:21.022Z,98932.16
2023-02-12T20:16:48.274Z,98934.81
2023-02-12T20:19:21.394Z,98932.28
2023-02-12T20:21:53.317Z,98934.25
2023-02-12T20:24:23.982Z,98924.97
2023-02-12T20:26:51.123Z,98932.00
2023-02-12T20:29:18.156Z,98928.78
2023-02-12T20:31:45.389Z,98923.56
2023-02-12T20:34:14.159Z,98925.75
2023-02-12T20:36:42.016Z,98927.09
2023-02-12T20:39:10.412Z,98931.50
2023-02-12T20:41:37.416Z,98935.00
2023-02-12T20:44:05.266Z,98942.53
2023-02-12T20:46:32.182Z,98936.19
2023-02-12T20:48:59.373Z,98938.41
2023-02-12T20:51:26.842Z,98943.81
2023-02-12T20:53:55.472Z,98930.00
2023-02-12T20:56:27.778Z,98936.19
2023-02-12T20:58:54.847Z,98930.63
2023-02-12T21:01:25.571Z,98934.53
2023-02-12T21:03:53.295Z,98937.00
2023-02-12T21:06:20.580Z,98928.22
2023-02-12T21:08:47.591Z,98930.81
2023-02-12T21:11:16.237Z,98930.94
2023-02-12T21:13:53.832Z,98922.13
2023-02-12T21:16:33.507Z,98919.63
2023-02-12T21:19:00.570Z,98921.06
2023-02-12T21:21:35.695Z,98929.75
2023-02-12T21:24:04.270Z,98925.75
2023-02-12T21:26:32.020Z,98929.81
2023-02-12T21:28:59.817Z,98931.88
2023-02-12T21:31:32.092Z,98926.09
2023-02-12T21:33:59.870Z,98917.84
2023-02-12T21:36:40.165Z,98916.31
2023-02-12T21:39:09.360Z,98923.03
2023-02-12T21:41:37.872Z,98927.13
2023-02-12T21:44:07.203Z,98923.97
2023-02-12T21:46:34.853Z,98936.03
2023-02-12T21:49:01.987Z,98938.28
2023-02-12T21:51:33.543Z,98937.91
2023-02-12T21:54:02.541Z,98935.66
2023-02-12T21:56:29.890Z,98923.81
2023-02-12T21:58:58.283Z,98925.50
2023-02-12T22:01:29.223Z,98927.31
2023-02-12T22:03:56.169Z,98931.63
2023-02-12T22:06:23.500Z,98937.44
2023-02-12T22:08:51.063Z,98922.34
2023-02-12T22:11:18.273Z,98929.13
2023-02-12T22:13:45.216Z,98927.69
2023-02-12T22:16:23.307Z,98926.69
2023-02-12T22:18:52.165Z,98931.63
2023-02-12T22:21:19.282Z,98934.06
2023-02-12T22:23:46.252Z,98934.16
2023-02-12T22:26:17.443Z,98930.63
2023-02-12T22:28:49.131Z,98947.47
2023-02-12T22:31:22.003Z,98940.16
2023-02-12T22:33:49.291Z,98943.38
2023-02-12T22:36:18.060Z,98939.75
2023-02-12T22:38:45.074Z,98939.56
2023-02-12T22:41:12.223Z,98942.94
2023-02-12T22:43:39.782Z,98939.09
2023-02-12T22:46:07.774Z,98943.19
2023-02-12T22:48:35.028Z,98946.63
2023-02-12T22:51:08.206Z,98944.84
2023-02-12T22:53:35.313Z,98937.91
2023-02-12T22:56:03.922Z,98945.41
2023-02-12T22:58:30.907Z,98944.03
2023-02-12T23:00:58.207Z,98939.09
2023-02-12T23:03:25.535Z,98940.56
2023-02-12T23:05:52.520Z,98940.81
2023-02-12T23:08:19.753Z,98937.47
2023-02-12T23:10:46.745Z,98938.09
2023-02-12T23:13:27.906Z,98935.63
2023-02-12T23:15:56.314Z,98941.53
2023-02-12T23:18:23.535Z,98941.53
2023-02-12T23:20:51.059Z,98941.72
2023-02-12T23:23:18.099Z,98931.88
2023-02-12T23:25:45.247Z,98931.53
2023-02-12T23:28:12.338Z,98928.88
2023-02-12T23:30:39.441Z,98939.66
2023-02-12T23:33:06.466Z,98939.00
2023-02-12T23:35:33.676Z,98934.38
2023-02-12T23:38:00.641Z,98930.34
2023-02-12T23:40:27.771Z,98933.69
2023-02-12T23:42:54.921Z,98942.81
2023-02-12T23:45:21.880Z,98936.22
2023-02-12T23:47:48.831Z,98937.50
2023-02-12T23:50:16.094Z,98942.00
2023-02-12T23:52:43.103Z,98935.38
2023-02-12T23:55:10.009Z,98938.84
2023-02-12T23:57:37.090Z,98930.22
